FDX104 KMEM-KMIA
Flight info
| Callsign | FDX104 |
|---|---|
| Flight time | 1h 39m |
| Altitude | 33000 |
| Route | BBKNG7 KERMI MGMRY ACORI FROGZ5 |
| Aircraft | MD11/H-SDE1E2E3FGHIJ2J3J4J5M1P1P2P3RXYZW/LB1D1 |
Departure
| Time | 2026-05-04 21:39 |
|---|---|
| Airport | Memphis International Airport (KMEM) |
Arrival
| Time | 2026-05-04 23:18 |
|---|---|
| Airport | Miami International Airport (KMIA) |
| Time | Latitude | Longitude | Altitude | Speed | Heading |
|---|---|---|---|---|---|
| 2026-05-04 21:18 | 35.06117 | -89.97315 | 346 ft | 0 kts | 182° |
| 2026-05-04 21:28 | 35.06119 | -89.97315 | 346 ft | 1 kts | 182° |
| 2026-05-04 21:28 | 35.06134 | -89.97315 | 346 ft | 2 kts | 181° |
| 2026-05-04 21:29 | 35.06149 | -89.97315 | 346 ft | 2 kts | 182° |
| 2026-05-04 21:29 | 35.06164 | -89.97311 | 346 ft | 2 kts | 203° |
| 2026-05-04 21:29 | 35.06176 | -89.97302 | 346 ft | 2 kts | 225° |
| 2026-05-04 21:29 | 35.06185 | -89.97288 | 346 ft | 2 kts | 245° |
| 2026-05-04 21:30 | 35.06189 | -89.97272 | 346 ft | 0 kts | 263° |
| 2026-05-04 21:30 | 35.06188 | -89.97281 | 346 ft | 3 kts | 261° |
| 2026-05-04 21:30 | 35.06185 | -89.97335 | 346 ft | 5 kts | 269° |
| 2026-05-04 21:30 | 35.06185 | -89.97364 | 346 ft | 1 kts | 272° |
| 2026-05-04 21:31 | 35.06186 | -89.97365 | 346 ft | 0 kts | 271° |
| 2026-05-04 21:33 | 35.06186 | -89.97368 | 346 ft | 1 kts | 271° |
| 2026-05-04 21:33 | 35.06187 | -89.97414 | 346 ft | 7 kts | 272° |
| 2026-05-04 21:33 | 35.06188 | -89.97483 | 346 ft | 8 kts | 271° |
| 2026-05-04 21:34 | 35.06160 | -89.97534 | 346 ft | 9 kts | 198° |
| 2026-05-04 21:34 | 35.06079 | -89.97542 | 346 ft | 8 kts | 179° |
| 2026-05-04 21:34 | 35.06065 | -89.97542 | 346 ft | 0 kts | 179° |
| 2026-05-04 21:35 | 35.06059 | -89.97542 | 346 ft | 2 kts | 179° |
| 2026-05-04 21:35 | 35.06027 | -89.97541 | 346 ft | 6 kts | 179° |
| 2026-05-04 21:35 | 35.05956 | -89.97523 | 346 ft | 14 kts | 163° |
| 2026-05-04 21:36 | 35.05857 | -89.97489 | 346 ft | 14 kts | 165° |
| 2026-05-04 21:36 | 35.05758 | -89.97482 | 346 ft | 14 kts | 185° |
| 2026-05-04 21:36 | 35.05659 | -89.97489 | 346 ft | 13 kts | 180° |
| 2026-05-04 21:36 | 35.05565 | -89.97485 | 346 ft | 13 kts | 180° |
| 2026-05-04 21:37 | 35.05516 | -89.97489 | 346 ft | 0 kts | 203° |
| 2026-05-04 21:37 | 35.05513 | -89.97491 | 346 ft | 1 kts | 204° |
| 2026-05-04 21:37 | 35.05480 | -89.97517 | 346 ft | 9 kts | 224° |
| 2026-05-04 21:37 | 35.05441 | -89.97598 | 346 ft | 11 kts | 224° |
| 2026-05-04 21:38 | 35.05347 | -89.97611 | 346 ft | 23 kts | 181° |
| 2026-05-04 21:38 | 35.04995 | -89.97611 | 346 ft | 83 kts | 179° |
| 2026-05-04 21:38 | 35.04209 | -89.97594 | 347 ft | 142 kts | 178° |
| 2026-05-04 21:38 | 35.03066 | -89.97560 | 405 ft | 179 kts | 182° |
| 2026-05-04 21:39 | 35.01808 | -89.97484 | 883 ft | 179 kts | 178° |
| 2026-05-04 21:39 | 35.00580 | -89.97386 | 1472 ft | 178 kts | 180° |
| 2026-05-04 21:39 | 34.99357 | -89.97292 | 2128 ft | 176 kts | 182° |
| 2026-05-04 21:39 | 34.98164 | -89.97213 | 2802 ft | 175 kts | 174° |
| 2026-05-04 21:40 | 34.96997 | -89.96777 | 3410 ft | 179 kts | 163° |
| 2026-05-04 21:40 | 34.95772 | -89.96141 | 3667 ft | 203 kts | 161° |
| 2026-05-04 21:40 | 34.94474 | -89.95204 | 3818 ft | 237 kts | 144° |
| 2026-05-04 21:40 | 34.93342 | -89.93583 | 4191 ft | 264 kts | 123° |
| 2026-05-04 21:41 | 34.92694 | -89.91438 | 4822 ft | 282 kts | 103° |
| 2026-05-04 21:41 | 34.92569 | -89.89028 | 5570 ft | 292 kts | 93° |
| 2026-05-04 21:41 | 34.92572 | -89.86527 | 6482 ft | 297 kts | 94° |
| 2026-05-04 21:41 | 34.92529 | -89.84040 | 7390 ft | 301 kts | 95° |
| 2026-05-04 21:42 | 34.92442 | -89.81477 | 8280 ft | 305 kts | 95° |
| 2026-05-04 21:42 | 34.92326 | -89.78929 | 9137 ft | 309 kts | 96° |
| 2026-05-04 21:42 | 34.92198 | -89.76292 | 9963 ft | 314 kts | 95° |
| 2026-05-04 21:42 | 34.92066 | -89.73594 | 10485 ft | 332 kts | 95° |
| 2026-05-04 21:43 | 34.91927 | -89.70683 | 10637 ft | 362 kts | 95° |
| 2026-05-04 21:43 | 34.91778 | -89.67519 | 10749 ft | 391 kts | 95° |
| 2026-05-04 21:43 | 34.91629 | -89.64109 | 11252 ft | 408 kts | 93° |
| 2026-05-04 21:43 | 34.91596 | -89.60648 | 11974 ft | 417 kts | 91° |
| 2026-05-04 21:44 | 34.91605 | -89.57116 | 12831 ft | 422 kts | 90° |
| 2026-05-04 21:44 | 34.91608 | -89.53519 | 13643 ft | 428 kts | 90° |
| 2026-05-04 21:44 | 34.91602 | -89.49905 | 14499 ft | 432 kts | 90° |
| 2026-05-04 21:44 | 34.91592 | -89.46228 | 15251 ft | 438 kts | 90° |
| 2026-05-04 21:45 | 34.91588 | -89.43891 | 15723 ft | 442 kts | 90° |
| 2026-05-04 21:45 | 34.91579 | -89.40137 | 16500 ft | 446 kts | 90° |
| 2026-05-04 21:45 | 34.91574 | -89.36382 | 17237 ft | 451 kts | 89° |
| 2026-05-04 21:45 | 34.91571 | -89.32536 | 17969 ft | 455 kts | 90° |
| 2026-05-04 21:46 | 34.91566 | -89.28670 | 18660 ft | 460 kts | 89° |
| 2026-05-04 21:46 | 34.91563 | -89.24777 | 19350 ft | 464 kts | 89° |
| 2026-05-04 21:46 | 34.91430 | -89.20830 | 19951 ft | 470 kts | 95° |
| 2026-05-04 21:46 | 34.90903 | -89.16927 | 20530 ft | 476 kts | 102° |
| 2026-05-04 21:47 | 34.90158 | -89.12981 | 21219 ft | 480 kts | 102° |
| 2026-05-04 21:47 | 34.89407 | -89.09016 | 21791 ft | 485 kts | 102° |
| 2026-05-04 21:47 | 34.88670 | -89.05002 | 22384 ft | 490 kts | 101° |
| 2026-05-04 21:47 | 34.87945 | -89.00958 | 23002 ft | 494 kts | 101° |
| 2026-05-04 21:48 | 34.87216 | -88.96829 | 23564 ft | 499 kts | 101° |
| 2026-05-04 21:48 | 34.86494 | -88.92721 | 24145 ft | 503 kts | 101° |
| 2026-05-04 21:48 | 34.85767 | -88.88557 | 24690 ft | 507 kts | 101° |
| 2026-05-04 21:48 | 34.85031 | -88.84350 | 25232 ft | 511 kts | 101° |
| 2026-05-04 21:49 | 34.84289 | -88.80102 | 25758 ft | 515 kts | 100° |
| 2026-05-04 21:49 | 34.83550 | -88.75871 | 26295 ft | 518 kts | 101° |
| 2026-05-04 21:49 | 34.82805 | -88.71562 | 26916 ft | 520 kts | 100° |
| 2026-05-04 21:49 | 34.82061 | -88.67283 | 27420 ft | 524 kts | 101° |
| 2026-05-04 21:50 | 34.81312 | -88.62957 | 27911 ft | 527 kts | 101° |
| 2026-05-04 21:50 | 34.80552 | -88.58571 | 28598 ft | 527 kts | 101° |
| 2026-05-04 21:50 | 34.79807 | -88.54240 | 29239 ft | 526 kts | 100° |
| 2026-05-04 21:50 | 34.79060 | -88.49918 | 29959 ft | 524 kts | 100° |
| 2026-05-04 21:51 | 34.78309 | -88.45548 | 30579 ft | 523 kts | 100° |
| 2026-05-04 21:51 | 34.77562 | -88.41206 | 31039 ft | 525 kts | 100° |
| 2026-05-04 21:51 | 34.76806 | -88.36798 | 31557 ft | 524 kts | 99° |
| 2026-05-04 21:51 | 34.76054 | -88.32381 | 31992 ft | 525 kts | 100° |
| 2026-05-04 21:52 | 34.75307 | -88.28004 | 32373 ft | 527 kts | 99° |
| 2026-05-04 21:52 | 34.74407 | -88.23654 | 32641 ft | 531 kts | 107° |
| 2026-05-04 21:52 | 34.73044 | -88.19504 | 32973 ft | 533 kts | 116° |
| 2026-05-04 21:53 | 34.68970 | -88.11979 | 33002 ft | 532 kts | 133° |
| 2026-05-04 21:53 | 34.63422 | -88.06102 | 32978 ft | 529 kts | 150° |
| 2026-05-04 21:54 | 34.56921 | -88.02135 | 33012 ft | 523 kts | 160° |
| 2026-05-04 21:54 | 34.50388 | -87.98151 | 33037 ft | 529 kts | 154° |
| 2026-05-04 21:55 | 34.44061 | -87.93601 | 33037 ft | 529 kts | 152° |
| 2026-05-04 21:55 | 34.37781 | -87.88930 | 33015 ft | 529 kts | 152° |
| 2026-05-04 21:56 | 34.31486 | -87.84229 | 33035 ft | 532 kts | 151° |
| 2026-05-04 21:56 | 34.25184 | -87.79529 | 33010 ft | 533 kts | 152° |
| 2026-05-04 21:57 | 34.18893 | -87.74826 | 33022 ft | 533 kts | 152° |
| 2026-05-04 21:57 | 34.12561 | -87.70094 | 33050 ft | 534 kts | 152° |
| 2026-05-04 21:58 | 34.06288 | -87.65407 | 33032 ft | 534 kts | 151° |
| 2026-05-04 21:58 | 33.99926 | -87.60649 | 33049 ft | 534 kts | 152° |
| 2026-05-04 21:59 | 33.93612 | -87.55924 | 33040 ft | 535 kts | 152° |
| 2026-05-04 21:59 | 33.87270 | -87.51275 | 33039 ft | 536 kts | 152° |
| 2026-05-04 22:00 | 33.80829 | -87.46575 | 33033 ft | 536 kts | 152° |
| 2026-05-04 22:00 | 33.74469 | -87.41923 | 33048 ft | 538 kts | 152° |
| 2026-05-04 22:01 | 33.68074 | -87.37244 | 33041 ft | 538 kts | 152° |
| 2026-05-04 22:01 | 33.61644 | -87.32541 | 33040 ft | 538 kts | 152° |
| 2026-05-04 22:02 | 33.55239 | -87.27849 | 33049 ft | 539 kts | 153° |
| 2026-05-04 22:02 | 33.48848 | -87.23164 | 33049 ft | 539 kts | 152° |
| 2026-05-04 22:03 | 33.42455 | -87.18481 | 33041 ft | 539 kts | 153° |
| 2026-05-04 22:03 | 33.36048 | -87.13791 | 33064 ft | 541 kts | 152° |
| 2026-05-04 22:04 | 33.29650 | -87.09100 | 33063 ft | 541 kts | 153° |
| 2026-05-04 22:04 | 33.23216 | -87.04381 | 33091 ft | 544 kts | 152° |
| 2026-05-04 22:05 | 33.16736 | -86.99697 | 33069 ft | 542 kts | 153° |
| 2026-05-04 22:05 | 33.10292 | -86.95093 | 33055 ft | 542 kts | 154° |
| 2026-05-04 22:06 | 33.03800 | -86.90439 | 33052 ft | 544 kts | 153° |
| 2026-05-04 22:06 | 32.97341 | -86.85807 | 33055 ft | 546 kts | 153° |
| 2026-05-04 22:07 | 32.90821 | -86.81126 | 33052 ft | 546 kts | 153° |
| 2026-05-04 22:07 | 32.84344 | -86.76472 | 33043 ft | 546 kts | 153° |
| 2026-05-04 22:08 | 32.77834 | -86.71790 | 33050 ft | 547 kts | 153° |
| 2026-05-04 22:08 | 32.71339 | -86.67126 | 33053 ft | 545 kts | 153° |
| 2026-05-04 22:09 | 32.64834 | -86.62450 | 33065 ft | 546 kts | 153° |
| 2026-05-04 22:09 | 32.58344 | -86.57789 | 33056 ft | 548 kts | 153° |
| 2026-05-04 22:10 | 32.51837 | -86.53101 | 33054 ft | 548 kts | 153° |
| 2026-05-04 22:10 | 32.45293 | -86.48453 | 33060 ft | 550 kts | 153° |
| 2026-05-04 22:11 | 32.38701 | -86.43787 | 33064 ft | 551 kts | 153° |
| 2026-05-04 22:11 | 32.32137 | -86.39127 | 33072 ft | 552 kts | 154° |
| 2026-05-04 22:12 | 32.25576 | -86.34405 | 33078 ft | 554 kts | 152° |
| 2026-05-04 22:12 | 32.19304 | -86.28937 | 33088 ft | 560 kts | 143° |
| 2026-05-04 22:13 | 32.13431 | -86.22883 | 33074 ft | 561 kts | 142° |
| 2026-05-04 22:13 | 32.07603 | -86.16851 | 33006 ft | 560 kts | 142° |
| 2026-05-04 22:14 | 32.01731 | -86.10811 | 32999 ft | 560 kts | 142° |
| 2026-05-04 22:14 | 31.95849 | -86.04764 | 33002 ft | 561 kts | 142° |
| 2026-05-04 22:15 | 31.89980 | -85.98720 | 32996 ft | 562 kts | 142° |
| 2026-05-04 22:15 | 31.84066 | -85.92641 | 33006 ft | 562 kts | 142° |
| 2026-05-04 22:16 | 31.78278 | -85.86564 | 33005 ft | 562 kts | 140° |
| 2026-05-04 22:16 | 31.72796 | -85.79987 | 33010 ft | 564 kts | 134° |
| 2026-05-04 22:17 | 31.67503 | -85.73090 | 32999 ft | 563 kts | 134° |
| 2026-05-04 22:17 | 31.62250 | -85.66315 | 32993 ft | 563 kts | 134° |
| 2026-05-04 22:18 | 31.56965 | -85.59523 | 33000 ft | 565 kts | 134° |
| 2026-05-04 22:18 | 31.51682 | -85.52712 | 33016 ft | 563 kts | 135° |
| 2026-05-04 22:19 | 31.46423 | -85.45948 | 33014 ft | 563 kts | 135° |
| 2026-05-04 22:19 | 31.41180 | -85.39190 | 33035 ft | 563 kts | 135° |
| 2026-05-04 22:20 | 31.35925 | -85.32416 | 33034 ft | 561 kts | 135° |
| 2026-05-04 22:20 | 31.30717 | -85.25684 | 33031 ft | 560 kts | 135° |
| 2026-05-04 22:21 | 31.25470 | -85.18920 | 33016 ft | 560 kts | 135° |
| 2026-05-04 22:21 | 31.20277 | -85.12212 | 33006 ft | 560 kts | 134° |
| 2026-05-04 22:22 | 31.15044 | -85.05447 | 33002 ft | 561 kts | 135° |
| 2026-05-04 22:22 | 31.09722 | -84.98753 | 33016 ft | 562 kts | 136° |
| 2026-05-04 22:23 | 31.04415 | -84.92069 | 33018 ft | 561 kts | 135° |
| 2026-05-04 22:23 | 30.99122 | -84.85400 | 33008 ft | 561 kts | 135° |
| 2026-05-04 22:24 | 30.93837 | -84.78720 | 33018 ft | 562 kts | 135° |
| 2026-05-04 22:24 | 30.88565 | -84.72054 | 33006 ft | 561 kts | 135° |
| 2026-05-04 22:25 | 30.83263 | -84.65350 | 33007 ft | 561 kts | 135° |
| 2026-05-04 22:25 | 30.77999 | -84.58684 | 33004 ft | 560 kts | 135° |
| 2026-05-04 22:26 | 30.72778 | -84.52068 | 33000 ft | 559 kts | 135° |
| 2026-05-04 22:26 | 30.67493 | -84.45377 | 33011 ft | 560 kts | 135° |
| 2026-05-04 22:27 | 30.62260 | -84.38739 | 33023 ft | 558 kts | 135° |
| 2026-05-04 22:27 | 30.56993 | -84.32089 | 33021 ft | 557 kts | 136° |
| 2026-05-04 22:28 | 30.51720 | -84.25543 | 33009 ft | 557 kts | 136° |
| 2026-05-04 22:28 | 30.46469 | -84.18983 | 33011 ft | 557 kts | 136° |
| 2026-05-04 22:29 | 30.41188 | -84.12389 | 32996 ft | 557 kts | 135° |
| 2026-05-04 22:29 | 30.35681 | -84.06212 | 33004 ft | 552 kts | 147° |
| 2026-05-04 22:30 | 30.29141 | -84.01652 | 33017 ft | 543 kts | 159° |
| 2026-05-04 22:30 | 30.22451 | -83.97622 | 33016 ft | 544 kts | 156° |
| 2026-05-04 22:31 | 30.15839 | -83.93341 | 33001 ft | 545 kts | 155° |
| 2026-05-04 22:31 | 30.09280 | -83.89021 | 32998 ft | 545 kts | 155° |
| 2026-05-04 22:32 | 30.02679 | -83.84656 | 33002 ft | 545 kts | 155° |
| 2026-05-04 22:32 | 29.96103 | -83.80315 | 33005 ft | 545 kts | 155° |
| 2026-05-04 22:33 | 29.89538 | -83.75974 | 32998 ft | 544 kts | 155° |
| 2026-05-04 22:33 | 29.82957 | -83.71626 | 33000 ft | 544 kts | 155° |
| 2026-05-04 22:34 | 29.76399 | -83.67317 | 32996 ft | 542 kts | 155° |
| 2026-05-04 22:34 | 29.69836 | -83.63052 | 32991 ft | 541 kts | 155° |
| 2026-05-04 22:35 | 29.63259 | -83.58772 | 33000 ft | 542 kts | 155° |
| 2026-05-04 22:35 | 29.56709 | -83.54495 | 32998 ft | 542 kts | 155° |
| 2026-05-04 22:36 | 29.50156 | -83.50226 | 33005 ft | 542 kts | 154° |
| 2026-05-04 22:36 | 29.43541 | -83.45908 | 33016 ft | 543 kts | 155° |
| 2026-05-04 22:37 | 29.36983 | -83.41627 | 33010 ft | 542 kts | 154° |
| 2026-05-04 22:37 | 29.30435 | -83.37350 | 33007 ft | 542 kts | 154° |
| 2026-05-04 22:38 | 29.23736 | -83.33401 | 33002 ft | 536 kts | 163° |
| 2026-05-04 22:38 | 29.16821 | -83.30183 | 32992 ft | 536 kts | 162° |
| 2026-05-04 22:39 | 29.09937 | -83.26775 | 32990 ft | 537 kts | 161° |
| 2026-05-04 22:39 | 29.03027 | -83.23273 | 32992 ft | 539 kts | 161° |
| 2026-05-04 22:40 | 28.96174 | -83.19782 | 32992 ft | 540 kts | 161° |
| 2026-05-04 22:40 | 28.89308 | -83.16284 | 32994 ft | 538 kts | 161° |
| 2026-05-04 22:41 | 28.82455 | -83.12797 | 32983 ft | 538 kts | 161° |
| 2026-05-04 22:41 | 28.75579 | -83.09292 | 32980 ft | 537 kts | 161° |
| 2026-05-04 22:42 | 28.68782 | -83.05837 | 32994 ft | 538 kts | 161° |
| 2026-05-04 22:42 | 28.61937 | -83.02347 | 32990 ft | 537 kts | 161° |
| 2026-05-04 22:43 | 28.55113 | -82.98872 | 32990 ft | 536 kts | 161° |
| 2026-05-04 22:43 | 28.48293 | -82.95422 | 32993 ft | 537 kts | 161° |
| 2026-05-04 22:44 | 28.41488 | -82.92016 | 32982 ft | 536 kts | 161° |
| 2026-05-04 22:44 | 28.34647 | -82.88579 | 32988 ft | 535 kts | 161° |
| 2026-05-04 22:45 | 28.27896 | -82.85188 | 32986 ft | 534 kts | 161° |
| 2026-05-04 22:45 | 28.17684 | -82.80056 | 32992 ft | 532 kts | 161° |
| 2026-05-04 22:46 | 28.10931 | -82.76663 | 32986 ft | 532 kts | 161° |
| 2026-05-04 22:46 | 28.04170 | -82.73268 | 32996 ft | 533 kts | 161° |
| 2026-05-04 22:47 | 27.97212 | -82.70616 | 32996 ft | 520 kts | 175° |
| 2026-05-04 22:47 | 27.90027 | -82.69373 | 32990 ft | 517 kts | 178° |
| 2026-05-04 22:48 | 27.82939 | -82.68087 | 32995 ft | 516 kts | 177° |
| 2026-05-04 22:48 | 27.75810 | -82.66705 | 32994 ft | 517 kts | 176° |
| 2026-05-04 22:49 | 27.68711 | -82.65311 | 32979 ft | 517 kts | 176° |
| 2026-05-04 22:49 | 27.61611 | -82.63915 | 32979 ft | 517 kts | 176° |
| 2026-05-04 22:50 | 27.54521 | -82.62517 | 32980 ft | 517 kts | 176° |
| 2026-05-04 22:50 | 27.47406 | -82.60651 | 32991 ft | 524 kts | 171° |
| 2026-05-04 22:51 | 27.40364 | -82.58514 | 32994 ft | 522 kts | 171° |
| 2026-05-04 22:51 | 27.33346 | -82.56446 | 32990 ft | 520 kts | 171° |
| 2026-05-04 22:52 | 27.26298 | -82.54383 | 32995 ft | 521 kts | 172° |
| 2026-05-04 22:52 | 27.19236 | -82.52317 | 32978 ft | 522 kts | 171° |
| 2026-05-04 22:53 | 27.12196 | -82.50255 | 32976 ft | 522 kts | 171° |
| 2026-05-04 22:53 | 27.05176 | -82.48197 | 32989 ft | 521 kts | 172° |
| 2026-05-04 22:54 | 26.98109 | -82.46124 | 32985 ft | 522 kts | 171° |
| 2026-05-04 22:54 | 26.91186 | -82.43372 | 32981 ft | 535 kts | 156° |
| 2026-05-04 22:55 | 26.85142 | -82.38445 | 32995 ft | 545 kts | 141° |
| 2026-05-04 22:55 | 26.79494 | -82.32776 | 32989 ft | 544 kts | 142° |
| 2026-05-04 22:56 | 26.73731 | -82.27194 | 32979 ft | 543 kts | 143° |
| 2026-05-04 22:56 | 26.68008 | -82.21710 | 32978 ft | 543 kts | 143° |
| 2026-05-04 22:57 | 26.62217 | -82.16177 | 32982 ft | 541 kts | 143° |
| 2026-05-04 22:57 | 26.59371 | -82.13449 | 32513 ft | 539 kts | 143° |
| 2026-05-04 22:57 | 26.56480 | -82.10685 | 32068 ft | 543 kts | 143° |
| 2026-05-04 22:58 | 26.53633 | -82.07961 | 31576 ft | 545 kts | 143° |
| 2026-05-04 22:58 | 26.50767 | -82.05182 | 30841 ft | 546 kts | 142° |
| 2026-05-04 22:58 | 26.47941 | -82.02328 | 30008 ft | 547 kts | 141° |
| 2026-05-04 22:58 | 26.45118 | -81.99461 | 29177 ft | 547 kts | 141° |
| 2026-05-04 22:59 | 26.42306 | -81.96620 | 28366 ft | 547 kts | 141° |
| 2026-05-04 22:59 | 26.39502 | -81.93794 | 27525 ft | 547 kts | 141° |
| 2026-05-04 22:59 | 26.36679 | -81.90955 | 26691 ft | 547 kts | 141° |
| 2026-05-04 22:59 | 26.33837 | -81.88096 | 25843 ft | 547 kts | 141° |
| 2026-05-04 23:00 | 26.31032 | -81.85274 | 24993 ft | 545 kts | 141° |
| 2026-05-04 23:00 | 26.28259 | -81.82480 | 24529 ft | 531 kts | 141° |
| 2026-05-04 23:00 | 26.25609 | -81.79710 | 24465 ft | 508 kts | 136° |
| 2026-05-04 23:00 | 26.23405 | -81.76759 | 24419 ft | 495 kts | 128° |
| 2026-05-04 23:01 | 26.21598 | -81.73465 | 23708 ft | 494 kts | 118° |
| 2026-05-04 23:01 | 26.20147 | -81.70043 | 22901 ft | 486 kts | 116° |
| 2026-05-04 23:01 | 26.18768 | -81.66692 | 22161 ft | 475 kts | 116° |
| 2026-05-04 23:01 | 26.17373 | -81.63388 | 21453 ft | 462 kts | 117° |
| 2026-05-04 23:02 | 26.16025 | -81.60249 | 20916 ft | 445 kts | 117° |
| 2026-05-04 23:02 | 26.14705 | -81.57209 | 20503 ft | 431 kts | 118° |
| 2026-05-04 23:02 | 26.13407 | -81.54242 | 20240 ft | 427 kts | 118° |
| 2026-05-04 23:02 | 26.12109 | -81.51276 | 19684 ft | 427 kts | 117° |
| 2026-05-04 23:03 | 26.10835 | -81.48329 | 19392 ft | 421 kts | 117° |
| 2026-05-04 23:03 | 26.09561 | -81.45364 | 18888 ft | 422 kts | 117° |
| 2026-05-04 23:03 | 26.08287 | -81.42459 | 18179 ft | 423 kts | 118° |
| 2026-05-04 23:03 | 26.06995 | -81.39515 | 17762 ft | 423 kts | 117° |
| 2026-05-04 23:04 | 26.05718 | -81.36605 | 17493 ft | 413 kts | 118° |
| 2026-05-04 23:04 | 26.04483 | -81.33777 | 17104 ft | 407 kts | 118° |
| 2026-05-04 23:04 | 26.03252 | -81.30971 | 16604 ft | 402 kts | 118° |
| 2026-05-04 23:04 | 26.02032 | -81.28178 | 16078 ft | 399 kts | 118° |
| 2026-05-04 23:05 | 26.00826 | -81.25423 | 15606 ft | 395 kts | 118° |
| 2026-05-04 23:05 | 25.99632 | -81.22687 | 15150 ft | 390 kts | 118° |
| 2026-05-04 23:05 | 25.98463 | -81.20009 | 14650 ft | 387 kts | 118° |
| 2026-05-04 23:05 | 25.97302 | -81.17346 | 14164 ft | 383 kts | 118° |
| 2026-05-04 23:06 | 25.96140 | -81.14680 | 13672 ft | 380 kts | 118° |
| 2026-05-04 23:06 | 25.94992 | -81.12047 | 13215 ft | 376 kts | 118° |
| 2026-05-04 23:06 | 25.93858 | -81.09457 | 12789 ft | 371 kts | 118° |
| 2026-05-04 23:06 | 25.92741 | -81.06905 | 12331 ft | 367 kts | 118° |
| 2026-05-04 23:07 | 25.91630 | -81.04371 | 11894 ft | 362 kts | 118° |
| 2026-05-04 23:07 | 25.90568 | -81.01862 | 11673 ft | 350 kts | 116° |
| 2026-05-04 23:07 | 25.89650 | -80.99428 | 11466 ft | 340 kts | 114° |
| 2026-05-04 23:07 | 25.88760 | -80.97021 | 11047 ft | 335 kts | 115° |
| 2026-05-04 23:08 | 25.87871 | -80.94669 | 10888 ft | 322 kts | 115° |
| 2026-05-04 23:08 | 25.87002 | -80.92404 | 10506 ft | 315 kts | 116° |
| 2026-05-04 23:08 | 25.86155 | -80.90211 | 10046 ft | 310 kts | 116° |
| 2026-05-04 23:08 | 25.85306 | -80.88006 | 9530 ft | 306 kts | 116° |
| 2026-05-04 23:09 | 25.84473 | -80.85854 | 8979 ft | 303 kts | 115° |
| 2026-05-04 23:09 | 25.83649 | -80.83715 | 8490 ft | 300 kts | 115° |
| 2026-05-04 23:09 | 25.82830 | -80.81599 | 8047 ft | 295 kts | 115° |
| 2026-05-04 23:09 | 25.82036 | -80.79530 | 7969 ft | 289 kts | 115° |
| 2026-05-04 23:10 | 25.81266 | -80.77516 | 7860 ft | 282 kts | 115° |
| 2026-05-04 23:10 | 25.80496 | -80.75519 | 7466 ft | 281 kts | 115° |
| 2026-05-04 23:10 | 25.79731 | -80.73546 | 7103 ft | 276 kts | 114° |
| 2026-05-04 23:10 | 25.78999 | -80.71638 | 7000 ft | 265 kts | 112° |
| 2026-05-04 23:11 | 25.78458 | -80.69694 | 6974 ft | 258 kts | 101° |
| 2026-05-04 23:11 | 25.78320 | -80.67722 | 6600 ft | 255 kts | 88° |
| 2026-05-04 23:11 | 25.78430 | -80.65810 | 6364 ft | 248 kts | 85° |
| 2026-05-04 23:11 | 25.78554 | -80.63883 | 6267 ft | 249 kts | 86° |
| 2026-05-04 23:12 | 25.78653 | -80.61968 | 5810 ft | 253 kts | 86° |
| 2026-05-04 23:12 | 25.78753 | -80.60032 | 5295 ft | 249 kts | 85° |
| 2026-05-04 23:12 | 25.78856 | -80.58132 | 4684 ft | 247 kts | 85° |
| 2026-05-04 23:12 | 25.78952 | -80.56274 | 4230 ft | 236 kts | 85° |
| 2026-05-04 23:13 | 25.79041 | -80.54495 | 3733 ft | 229 kts | 85° |
| 2026-05-04 23:13 | 25.79120 | -80.52785 | 3406 ft | 213 kts | 85° |
| 2026-05-04 23:13 | 25.79198 | -80.51225 | 3266 ft | 191 kts | 85° |
| 2026-05-04 23:13 | 25.79266 | -80.49827 | 3042 ft | 176 kts | 85° |
| 2026-05-04 23:14 | 25.79326 | -80.48517 | 3006 ft | 167 kts | 85° |
| 2026-05-04 23:14 | 25.79382 | -80.47225 | 2880 ft | 168 kts | 85° |
| 2026-05-04 23:14 | 25.79435 | -80.45951 | 2655 ft | 163 kts | 85° |
| 2026-05-04 23:14 | 25.79487 | -80.44687 | 2474 ft | 162 kts | 85° |
| 2026-05-04 23:15 | 25.79536 | -80.43464 | 2244 ft | 154 kts | 85° |
| 2026-05-04 23:15 | 25.79583 | -80.42300 | 2097 ft | 151 kts | 85° |
| 2026-05-04 23:15 | 25.79630 | -80.41146 | 1879 ft | 150 kts | 85° |
| 2026-05-04 23:15 | 25.79675 | -80.39986 | 1686 ft | 148 kts | 85° |
| 2026-05-04 23:16 | 25.79722 | -80.38855 | 1498 ft | 148 kts | 85° |
| 2026-05-04 23:16 | 25.79767 | -80.37713 | 1319 ft | 148 kts | 85° |
| 2026-05-04 23:16 | 25.79813 | -80.36561 | 1114 ft | 148 kts | 85° |
| 2026-05-04 23:16 | 25.79860 | -80.35430 | 935 ft | 148 kts | 85° |
| 2026-05-04 23:17 | 25.79909 | -80.34275 | 740 ft | 149 kts | 86° |
| 2026-05-04 23:17 | 25.79955 | -80.33124 | 548 ft | 149 kts | 86° |
| 2026-05-04 23:17 | 25.80001 | -80.31976 | 362 ft | 150 kts | 86° |
| 2026-05-04 23:17 | 25.80048 | -80.30821 | 164 ft | 150 kts | 86° |
| 2026-05-04 23:18 | 25.80093 | -80.29667 | 17 ft | 145 kts | 87° |
| 2026-05-04 23:18 | 25.80128 | -80.28799 | 16 ft | 86 kts | 87° |
| 2026-05-04 23:18 | 25.80153 | -80.28223 | 16 ft | 58 kts | 87° |
| 2026-05-04 23:18 | 25.80166 | -80.27965 | 16 ft | 21 kts | 86° |
| 2026-05-04 23:19 | 25.80175 | -80.27784 | 16 ft | 25 kts | 89° |
| 2026-05-04 23:19 | 25.80222 | -80.27625 | 16 ft | 17 kts | 12° |
| 2026-05-04 23:19 | 25.80283 | -80.27627 | 16 ft | 0 kts | 357° |
| 2026-05-04 23:19 | 25.80334 | -80.27629 | 16 ft | 12 kts | 357° |
| 2026-05-04 23:20 | 25.80429 | -80.27634 | 16 ft | 14 kts | 357° |
| 2026-05-04 23:20 | 25.80501 | -80.27681 | 16 ft | 13 kts | 278° |
| 2026-05-04 23:20 | 25.80498 | -80.27806 | 16 ft | 18 kts | 267° |
| 2026-05-04 23:20 | 25.80491 | -80.27953 | 16 ft | 19 kts | 266° |
| 2026-05-04 23:21 | 25.80483 | -80.28110 | 16 ft | 21 kts | 266° |
| 2026-05-04 23:21 | 25.80478 | -80.28277 | 16 ft | 22 kts | 269° |
| 2026-05-04 23:21 | 25.80472 | -80.28453 | 16 ft | 23 kts | 267° |
| 2026-05-04 23:21 | 25.80463 | -80.28635 | 16 ft | 23 kts | 267° |
| 2026-05-04 23:22 | 25.80455 | -80.28818 | 16 ft | 23 kts | 267° |
| 2026-05-04 23:22 | 25.80447 | -80.28997 | 16 ft | 22 kts | 268° |
| 2026-05-04 23:22 | 25.80441 | -80.29170 | 16 ft | 22 kts | 267° |
| 2026-05-04 23:22 | 25.80433 | -80.29339 | 16 ft | 21 kts | 267° |
| 2026-05-04 23:23 | 25.80426 | -80.29485 | 16 ft | 6 kts | 268° |
| 2026-05-04 23:23 | 25.80446 | -80.29506 | 16 ft | 5 kts | 351° |
| 2026-05-04 23:23 | 25.80480 | -80.29511 | 16 ft | 5 kts | 354° |
| 2026-05-04 23:23 | 25.80509 | -80.29513 | 16 ft | 2 kts | 356° |
| 2026-05-04 23:24 | 25.80510 | -80.29513 | 16 ft | 0 kts | 356° |